createdAt,value
2023-02-28T00:00:12.995Z,7.60
2023-02-28T00:02:41.014Z,4.72
2023-02-28T00:05:08.806Z,4.97
2023-02-28T00:07:35.930Z,3.45
2023-02-28T00:10:03.023Z,3.33
2023-02-28T00:12:30.168Z,4.15
2023-02-28T00:14:57.241Z,4.53
2023-02-28T00:17:24.604Z,4.72
2023-02-28T00:19:52.445Z,2.28
2023-02-28T00:22:20.524Z,2.60
2023-02-28T00:24:48.425Z,5.53
2023-02-28T00:27:16.113Z,8.82
2023-02-28T00:29:43.195Z,5.05
2023-02-28T00:32:10.352Z,4.38
2023-02-28T00:34:38.696Z,3.28
2023-02-28T00:37:09.490Z,6.68
2023-02-28T00:39:37.418Z,4.05
2023-02-28T00:42:04.608Z,4.65
2023-02-28T00:44:32.339Z,3.38
2023-02-28T00:46:59.636Z,4.45
2023-02-28T00:49:26.884Z,3.35
2023-02-28T00:51:54.484Z,2.67
2023-02-28T00:54:21.843Z,3.22
2023-02-28T00:56:49.478Z,2.70
2023-02-28T00:59:17.566Z,7.93
2023-02-28T01:01:45.165Z,4.60
2023-02-28T01:04:12.426Z,5.10
2023-02-28T01:06:39.975Z,3.30
2023-02-28T01:09:07.425Z,3.95
2023-02-28T01:11:35.075Z,4.45
2023-02-28T01:14:02.639Z,6.00
2023-02-28T01:16:30.415Z,5.03
2023-02-28T01:18:57.640Z,5.07
2023-02-28T01:21:24.978Z,6.32
2023-02-28T01:23:52.303Z,3.28
2023-02-28T01:26:23.600Z,6.20
2023-02-28T01:28:52.110Z,3.90
2023-02-28T01:31:19.767Z,3.55
2023-02-28T01:33:47.082Z,4.22
2023-02-28T01:36:18.258Z,4.20
2023-02-28T01:38:45.917Z,5.03
2023-02-28T01:41:17.878Z,6.95
2023-02-28T01:43:44.924Z,4.10
2023-02-28T01:46:12.485Z,4.40
2023-02-28T01:48:41.954Z,5.15
2023-02-28T01:51:21.900Z,6.60
2023-02-28T01:53:59.613Z,6.63
2023-02-28T01:56:29.865Z,5.43
2023-02-28T01:58:57.412Z,15.75
2023-02-28T02:01:25.414Z,4.28
2023-02-28T02:03:57.175Z,4.45
2023-02-28T02:06:24.901Z,10.90
2023-02-28T02:08:53.402Z,8.27
2023-02-28T02:11:22.307Z,5.88
2023-02-28T02:14:04.778Z,3.35
2023-02-28T02:16:40.716Z,8.45
2023-02-28T02:19:10.676Z,4.15
2023-02-28T02:21:56.063Z,7.18
2023-02-28T02:24:25.951Z,8.07
2023-02-28T02:27:00.509Z,5.32
2023-02-28T02:29:46.442Z,8.25
2023-02-28T02:32:18.837Z,6.53
2023-02-28T02:35:04.779Z,5.18
2023-02-28T02:37:34.964Z,10.00
2023-02-28T02:40:05.496Z,9.30
2023-02-28T02:42:51.687Z,7.55
2023-02-28T02:45:42.052Z,12.27
2023-02-28T02:48:11.157Z,8.45
2023-02-28T02:50:41.890Z,7.90
2023-02-28T02:53:09.847Z,15.60
2023-02-28T02:55:40.980Z,9.07
2023-02-28T02:58:10.115Z,10.70
2023-02-28T03:00:43.985Z,10.73
2023-02-28T03:03:12.485Z,12.30
2023-02-28T03:05:52.510Z,9.40
2023-02-28T03:08:19.613Z,11.00
2023-02-28T03:10:47.882Z,7.43
2023-02-28T03:13:44.474Z,11.10
2023-02-28T03:16:43.758Z,6.93
2023-02-28T03:19:10.806Z,9.90
2023-02-28T03:21:43.945Z,7.97
2023-02-28T03:24:20.441Z,8.65
2023-02-28T03:26:51.519Z,10.63
2023-02-28T03:29:21.409Z,13.25
2023-02-28T03:32:19.114Z,13.38
2023-02-28T03:34:58.053Z,10.00
2023-02-28T03:37:26.619Z,10.70
2023-02-28T03:39:58.170Z,10.68
2023-02-28T03:42:33.443Z,14.18
2023-02-28T03:45:02.822Z,10.07
2023-02-28T03:47:42.382Z,12.93
2023-02-28T03:50:12.612Z,11.02
2023-02-28T03:52:46.048Z,11.45
2023-02-28T03:55:14.537Z,10.85
2023-02-28T03:57:41.614Z,11.98
2023-02-28T04:00:15.215Z,10.32
2023-02-28T04:02:42.365Z,9.02
2023-02-28T04:05:09.637Z,12.30
2023-02-28T04:07:37.140Z,9.45
2023-02-28T04:10:05.172Z,10.27
2023-02-28T04:12:32.285Z,12.02
2023-02-28T04:14:59.392Z,14.00
2023-02-28T04:17:26.496Z,12.35
2023-02-28T04:19:55.005Z,9.52
2023-02-28T04:22:22.114Z,9.85
2023-02-28T04:24:49.248Z,14.77
2023-02-28T04:27:16.802Z,10.23
2023-02-28T04:29:45.507Z,15.43
2023-02-28T04:32:12.951Z,12.05
2023-02-28T04:34:40.202Z,11.02
2023-02-28T04:37:14.635Z,10.93
2023-02-28T04:39:42.481Z,14.10
2023-02-28T04:42:09.934Z,9.85
2023-02-28T04:44:37.003Z,11.52
2023-02-28T04:47:04.133Z,13.32
2023-02-28T04:49:31.277Z,12.55
2023-02-28T04:51:58.433Z,11.63
2023-02-28T04:54:25.647Z,13.18
2023-02-28T04:56:52.704Z,12.55
2023-02-28T04:59:19.758Z,10.32
2023-02-28T05:01:47.937Z,10.13
2023-02-28T05:04:15.209Z,11.40
2023-02-28T05:06:42.459Z,13.18
2023-02-28T05:09:09.555Z,13.10
2023-02-28T05:11:36.930Z,9.85
2023-02-28T05:14:08.944Z,11.40
2023-02-28T05:16:36.056Z,11.55
2023-02-28T05:19:03.195Z,11.63
2023-02-28T05:21:37.968Z,13.25
2023-02-28T05:24:06.798Z,9.73
2023-02-28T05:26:36.336Z,9.10
2023-02-28T05:29:03.533Z,15.82
2023-02-28T05:31:31.015Z,12.90
2023-02-28T05:33:58.466Z,11.82
2023-02-28T05:36:25.548Z,10.35
2023-02-28T05:38:52.845Z,14.45
2023-02-28T05:41:20.912Z,13.18
2023-02-28T05:43:48.370Z,15.27
2023-02-28T05:46:15.712Z,16.88
2023-02-28T05:48:43.546Z,15.02
2023-02-28T05:51:11.077Z,14.55
2023-02-28T05:53:38.457Z,10.38
2023-02-28T05:56:05.706Z,11.32
2023-02-28T05:58:33.126Z,12.13
2023-02-28T06:01:00.840Z,9.35
2023-02-28T06:03:28.318Z,13.38
2023-02-28T06:05:55.545Z,14.45
2023-02-28T06:08:22.627Z,12.43
2023-02-28T06:10:50.078Z,9.32
2023-02-28T06:13:17.227Z,10.13
2023-02-28T06:15:44.448Z,14.02
2023-02-28T06:18:11.510Z,11.20
2023-02-28T06:20:38.674Z,12.07
2023-02-28T06:23:05.951Z,12.70
2023-02-28T06:25:33.100Z,11.68
2023-02-28T06:28:00.390Z,18.98
2023-02-28T06:30:30.988Z,20.45
2023-02-28T06:32:58.409Z,13.20
2023-02-28T06:35:25.842Z,16.30
2023-02-28T06:37:52.976Z,15.93
2023-02-28T06:40:20.218Z,13.32
2023-02-28T06:42:47.287Z,14.60
2023-02-28T06:45:14.548Z,26.83
2023-02-28T06:47:42.334Z,14.98
2023-02-28T06:50:10.910Z,15.18
2023-02-28T06:52:38.411Z,14.25
2023-02-28T06:55:06.408Z,11.43
2023-02-28T06:57:34.822Z,14.38
2023-02-28T07:00:02.743Z,13.27
2023-02-28T07:02:29.867Z,10.50
2023-02-28T07:04:57.158Z,17.17
2023-02-28T07:07:24.314Z,12.55
2023-02-28T07:09:51.463Z,13.32
2023-02-28T07:12:18.815Z,10.77
2023-02-28T07:14:45.848Z,11.05
2023-02-28T07:17:13.410Z,12.15
2023-02-28T07:19:40.872Z,13.75
2023-02-28T07:22:08.449Z,8.63
2023-02-28T07:24:35.662Z,11.90
2023-02-28T07:27:02.822Z,14.52
2023-02-28T07:29:30.228Z,13.40
2023-02-28T07:31:57.723Z,12.25
2023-02-28T07:34:24.921Z,10.90
2023-02-28T07:36:54.576Z,11.30
2023-02-28T07:39:22.392Z,10.95
2023-02-28T07:41:49.466Z,12.68
2023-02-28T07:44:16.656Z,9.18
2023-02-28T07:46:43.960Z,12.75
2023-02-28T07:49:11.123Z,12.68
2023-02-28T07:51:38.242Z,9.43
2023-02-28T07:54:05.466Z,19.80
2023-02-28T07:56:32.909Z,15.45
2023-02-28T07:59:00.167Z,10.60
2023-02-28T08:01:27.402Z,12.55
2023-02-28T08:03:55.929Z,13.32
2023-02-28T08:06:24.103Z,7.40
2023-02-28T08:08:51.484Z,8.93
2023-02-28T08:11:18.829Z,10.30
2023-02-28T08:13:46.779Z,10.07
2023-02-28T08:16:22.912Z,7.30
2023-02-28T08:18:51.098Z,7.53
2023-02-28T08:21:18.201Z,9.43
2023-02-28T08:23:45.299Z,6.80
2023-02-28T08:26:12.477Z,6.20
2023-02-28T08:28:39.656Z,4.60
2023-02-28T08:31:11.784Z,5.88
2023-02-28T08:33:40.129Z,3.65
2023-02-28T08:36:07.798Z,4.35
2023-02-28T08:38:34.988Z,5.70
2023-02-28T08:41:02.908Z,4.55
2023-02-28T08:43:30.396Z,2.88
2023-02-28T08:45:57.916Z,3.60
2023-02-28T08:48:25.625Z,4.35
2023-02-28T08:51:06.864Z,4.72
2023-02-28T08:56:02.965Z,4.07
2023-02-28T08:58:30.572Z,2.45
2023-02-28T09:00:58.049Z,5.18
2023-02-28T09:03:26.043Z,4.90
2023-02-28T09:06:00.127Z,4.13
2023-02-28T09:08:27.928Z,5.20
2023-02-28T09:10:55.509Z,6.07
2023-02-28T09:13:22.771Z,5.72
2023-02-28T09:15:50.086Z,3.92
2023-02-28T09:18:17.185Z,4.00
2023-02-28T09:20:44.608Z,5.28
2023-02-28T09:23:12.773Z,4.15
2023-02-28T09:25:46.291Z,4.05
2023-02-28T09:28:13.533Z,5.78
2023-02-28T09:30:40.664Z,2.80
2023-02-28T09:33:07.783Z,5.15
2023-02-28T09:35:34.838Z,2.50
2023-02-28T09:38:04.018Z,3.80
2023-02-28T09:40:31.787Z,2.58
2023-02-28T09:43:00.750Z,1.73
2023-02-28T09:45:33.664Z,1.10
2023-02-28T09:48:05.421Z,3.05
2023-02-28T09:50:36.952Z,4.35
2023-02-28T09:53:06.609Z,3.25
2023-02-28T09:55:46.515Z,2.13
2023-02-28T09:58:22.170Z,9.50
2023-02-28T10:00:52.680Z,4.10
2023-02-28T10:03:35.647Z,3.35
2023-02-28T10:06:07.482Z,2.90
2023-02-28T10:11:03.151Z,1.95
2023-02-28T10:13:30.272Z,2.28
2023-02-28T10:16:00.529Z,2.08
2023-02-28T10:18:31.055Z,1.83
2023-02-28T10:20:58.399Z,2.58
2023-02-28T10:23:28.337Z,2.53
2023-02-28T10:26:17.031Z,1.80
2023-02-28T10:28:44.635Z,3.60
2023-02-28T10:31:21.263Z,2.72
2023-02-28T10:33:48.910Z,2.88
2023-02-28T10:36:18.041Z,3.55
2023-02-28T10:38:46.025Z,2.15
2023-02-28T10:41:16.084Z,2.47
2023-02-28T10:43:45.813Z,2.20
2023-02-28T10:46:15.798Z,1.30
2023-02-28T10:48:45.723Z,7.10
2023-02-28T10:51:16.839Z,1.55
2023-02-28T10:54:02.262Z,3.10
2023-02-28T10:56:31.041Z,2.85
2023-02-28T10:59:16.882Z,2.30
2023-02-28T11:01:55.017Z,1.52
2023-02-28T11:04:33.334Z,3.42
2023-02-28T11:07:01.969Z,2.30
2023-02-28T11:09:36.696Z,2.88
2023-02-28T11:12:06.296Z,1.60
2023-02-28T11:14:35.511Z,1.90
2023-02-28T11:17:13.317Z,2.38
2023-02-28T11:19:42.030Z,2.55
2023-02-28T11:22:10.130Z,2.17
2023-02-28T11:24:38.995Z,2.25
2023-02-28T11:27:06.143Z,2.05
2023-02-28T11:29:35.681Z,1.92
2023-02-28T11:32:02.942Z,1.80
2023-02-28T11:34:30.084Z,1.67
2023-02-28T11:36:58.550Z,3.38
2023-02-28T11:39:26.841Z,1.88
2023-02-28T11:41:54.291Z,2.60
2023-02-28T11:44:27.306Z,0.88
2023-02-28T11:47:08.506Z,1.50
2023-02-28T11:49:44.612Z,1.70
2023-02-28T11:52:18.919Z,1.33
2023-02-28T11:54:49.229Z,2.25
2023-02-28T11:57:16.305Z,2.28
2023-02-28T12:00:02.383Z,3.55
2023-02-28T12:02:32.823Z,1.17
2023-02-28T12:05:07.872Z,2.10
2023-02-28T12:07:35.669Z,2.38
2023-02-28T12:10:23.463Z,2.15
2023-02-28T12:13:06.820Z,3.78
2023-02-28T12:15:42.974Z,2.22
2023-02-28T12:18:19.460Z,1.23
2023-02-28T12:21:12.999Z,2.08
2023-02-28T12:23:43.261Z,1.98
2023-02-28T12:26:22.990Z,1.17
2023-02-28T12:28:55.745Z,1.65
2023-02-28T12:31:25.794Z,0.85
2023-02-28T12:33:54.266Z,0.95
2023-02-28T12:36:23.130Z,2.33
2023-02-28T12:38:57.308Z,1.65
2023-02-28T12:41:28.242Z,1.00
2023-02-28T12:44:12.477Z,1.33
2023-02-28T12:46:49.863Z,1.73
2023-02-28T12:49:23.699Z,2.30
2023-02-28T12:51:51.638Z,3.60
2023-02-28T12:54:26.950Z,3.22
2023-02-28T12:57:12.716Z,2.50
2023-02-28T12:59:42.435Z,2.15
2023-02-28T13:02:28.127Z,1.52
2023-02-28T13:04:58.368Z,1.30
2023-02-28T13:07:32.696Z,3.70
2023-02-28T13:10:01.162Z,3.55
2023-02-28T13:12:28.476Z,5.10
2023-02-28T13:15:16.133Z,2.17
2023-02-28T13:17:43.299Z,3.17
2023-02-28T13:20:21.110Z,2.17
2023-02-28T13:22:49.583Z,1.48
2023-02-28T13:25:34.870Z,2.50
2023-02-28T13:28:10.298Z,2.00
2023-02-28T13:30:53.109Z,2.35
2023-02-28T13:33:24.086Z,2.78
2023-02-28T13:36:02.069Z,3.50
2023-02-28T13:38:37.309Z,2.10
2023-02-28T13:41:23.071Z,3.97
2023-02-28T13:44:19.696Z,1.85
2023-02-28T13:46:50.036Z,3.03
2023-02-28T13:49:26.397Z,2.40
2023-02-28T13:51:53.535Z,4.25
2023-02-28T13:54:29.970Z,1.60
2023-02-28T13:57:04.865Z,2.00
2023-02-28T13:59:46.147Z,1.75
2023-02-28T14:02:16.381Z,2.57
2023-02-28T14:04:47.004Z,3.83
2023-02-28T14:07:22.710Z,2.58
2023-02-28T14:09:57.700Z,2.78
2023-02-28T14:12:43.625Z,3.47
2023-02-28T14:15:29.502Z,2.67
2023-02-28T14:17:57.333Z,3.28
2023-02-28T14:20:26.731Z,3.92
2023-02-28T14:23:00.770Z,2.40
2023-02-28T14:25:47.398Z,1.88
2023-02-28T14:28:14.808Z,2.15
2023-02-28T14:30:53.275Z,5.38
2023-02-28T14:33:22.936Z,2.08
2023-02-28T14:36:04.516Z,3.08
2023-02-28T14:38:33.796Z,2.25
2023-02-28T14:41:04.711Z,2.55
2023-02-28T14:43:31.775Z,3.67
2023-02-28T14:46:01.153Z,3.10
2023-02-28T14:48:28.643Z,2.58
2023-02-28T14:50:58.048Z,2.83
2023-02-28T14:53:26.789Z,3.83
2023-02-28T14:55:54.194Z,2.17
2023-02-28T14:58:23.962Z,2.90
2023-02-28T15:00:52.198Z,2.60
2023-02-28T15:03:20.933Z,2.42
2023-02-28T15:05:55.146Z,3.55
2023-02-28T15:08:22.358Z,2.33
2023-02-28T15:11:04.115Z,2.05
2023-02-28T15:13:42.049Z,3.47
2023-02-28T15:16:18.375Z,4.53
2023-02-28T15:18:49.874Z,3.67
2023-02-28T15:21:19.118Z,4.32
2023-02-28T15:23:48.609Z,5.70
2023-02-28T15:26:18.087Z,3.90
2023-02-28T15:28:45.654Z,6.53
2023-02-28T15:31:43.751Z,4.65
2023-02-28T15:34:21.069Z,9.52
2023-02-28T15:36:49.681Z,2.95
2023-02-28T15:39:24.107Z,2.75
2023-02-28T15:41:51.333Z,3.58
2023-02-28T15:44:27.676Z,4.72
2023-02-28T15:47:00.553Z,1.95
2023-02-28T15:49:27.814Z,3.15
2023-02-28T15:51:57.662Z,2.30
2023-02-28T15:54:28.384Z,2.85
2023-02-28T15:56:57.057Z,4.25
2023-02-28T15:59:31.427Z,3.33
2023-02-28T16:02:11.020Z,2.00
2023-02-28T16:04:38.662Z,3.83
2023-02-28T16:07:07.238Z,7.03
2023-02-28T16:09:35.302Z,2.08
2023-02-28T16:12:03.969Z,2.30
2023-02-28T16:14:31.751Z,2.05
2023-02-28T16:17:03.705Z,3.78
2023-02-28T16:19:33.750Z,3.08
2023-02-28T16:22:02.071Z,2.45
2023-02-28T16:24:29.238Z,1.88
2023-02-28T16:26:57.052Z,2.65
2023-02-28T16:29:30.495Z,2.80
2023-02-28T16:31:57.718Z,4.35
2023-02-28T16:34:25.471Z,6.30
2023-02-28T16:36:53.101Z,3.03
2023-02-28T16:39:21.764Z,3.90
2023-02-28T16:41:50.104Z,4.07
2023-02-28T16:44:30.551Z,3.60
2023-02-28T16:46:57.747Z,3.58
2023-02-28T16:49:25.843Z,2.30
2023-02-28T16:51:52.941Z,2.85
2023-02-28T16:54:20.224Z,4.78
2023-02-28T16:56:48.608Z,2.30
2023-02-28T16:59:19.044Z,2.85
2023-02-28T17:01:46.294Z,2.58
2023-02-28T17:04:14.798Z,5.63
2023-02-28T17:06:41.901Z,4.60
2023-02-28T17:09:36.743Z,4.50
2023-02-28T17:12:09.307Z,6.47
2023-02-28T17:14:36.585Z,9.30
2023-02-28T17:17:03.832Z,11.15
2023-02-28T17:19:30.880Z,10.30
2023-02-28T17:21:58.203Z,23.42
2023-02-28T17:24:30.832Z,22.27
2023-02-28T17:26:58.661Z,14.00
2023-02-28T17:29:26.014Z,12.52
2023-02-28T17:31:53.449Z,10.55
2023-02-28T17:34:20.938Z,11.02
2023-02-28T17:36:48.610Z,13.40
2023-02-28T17:39:16.199Z,12.15
2023-02-28T17:41:43.387Z,12.85
2023-02-28T17:44:10.912Z,11.23
2023-02-28T17:46:38.507Z,13.68
2023-02-28T17:49:06.110Z,16.20
2023-02-28T17:51:33.206Z,20.85
2023-02-28T17:54:00.728Z,21.98
2023-02-28T17:56:28.628Z,23.40
2023-02-28T17:58:57.448Z,26.92
2023-02-28T18:01:28.334Z,26.67
2023-02-28T18:03:55.896Z,38.85
2023-02-28T18:06:23.114Z,43.05
2023-02-28T18:08:52.360Z,41.30
2023-02-28T18:11:20.365Z,52.08
2023-02-28T18:13:48.536Z,52.28
2023-02-28T18:16:15.846Z,33.35
2023-02-28T18:18:43.249Z,36.42
2023-02-28T18:21:11.176Z,25.27
2023-02-28T18:23:38.436Z,15.23
2023-02-28T18:26:08.269Z,13.38
2023-02-28T18:28:36.462Z,10.48
2023-02-28T18:31:07.653Z,9.02
2023-02-28T18:33:34.842Z,9.67
2023-02-28T18:36:02.216Z,7.22
2023-02-28T18:38:29.534Z,10.95
2023-02-28T18:40:57.588Z,9.50
2023-02-28T18:43:24.822Z,11.25
2023-02-28T18:45:51.841Z,12.40
2023-02-28T18:48:19.884Z,12.85
2023-02-28T18:50:47.843Z,15.85
2023-02-28T18:53:15.166Z,13.10
2023-02-28T18:55:42.418Z,12.98
2023-02-28T18:58:09.623Z,15.57
2023-02-28T19:00:36.845Z,17.65
2023-02-28T19:03:04.388Z,11.50
2023-02-28T19:05:34.284Z,13.40
2023-02-28T19:08:02.256Z,11.23
2023-02-28T19:10:29.436Z,18.67
2023-02-28T19:12:56.543Z,17.15
2023-02-28T19:15:23.723Z,20.77
2023-02-28T19:17:50.778Z,18.60
2023-02-28T19:20:18.236Z,21.73
2023-02-28T19:22:45.387Z,11.93
2023-02-28T19:25:12.525Z,9.93
2023-02-28T19:27:39.715Z,16.38
2023-02-28T19:30:07.556Z,8.15
2023-02-28T19:32:35.025Z,7.78
2023-02-28T19:35:02.807Z,10.00
2023-02-28T19:37:29.933Z,12.65
2023-02-28T19:39:57.077Z,10.90
2023-02-28T19:42:24.715Z,10.40
2023-02-28T19:44:51.795Z,10.95
2023-02-28T19:47:19.167Z,10.73
2023-02-28T19:49:46.350Z,16.35
2023-02-28T19:52:15.505Z,18.60
2023-02-28T19:54:43.283Z,16.58
2023-02-28T19:57:10.583Z,18.17
2023-02-28T19:59:39.738Z,24.92
2023-02-28T20:02:17.746Z,22.75
2023-02-28T20:04:48.674Z,21.20
2023-02-28T20:07:16.653Z,20.02
2023-02-28T20:09:44.866Z,25.92
2023-02-28T20:12:23.467Z,25.00
2023-02-28T20:14:51.647Z,25.50
2023-02-28T20:17:19.061Z,19.83
2023-02-28T20:19:46.249Z,25.77
2023-02-28T20:22:13.422Z,27.77
2023-02-28T20:24:40.528Z,25.60
2023-02-28T20:27:07.672Z,18.60
2023-02-28T20:29:35.351Z,17.67
2023-02-28T20:32:02.766Z,21.58
2023-02-28T20:34:29.973Z,14.15
2023-02-28T20:36:58.645Z,12.82
2023-02-28T20:39:26.338Z,12.55
2023-02-28T20:41:53.535Z,14.45
2023-02-28T20:44:20.666Z,21.55
2023-02-28T20:46:47.815Z,22.70
2023-02-28T20:49:15.729Z,16.38
2023-02-28T20:51:42.921Z,16.17
2023-02-28T20:54:15.791Z,13.93
2023-02-28T20:56:42.874Z,12.52
2023-02-28T20:59:11.935Z,14.60
2023-02-28T21:01:40.674Z,13.75
2023-02-28T21:04:08.087Z,14.05
2023-02-28T21:06:37.038Z,17.05
2023-02-28T21:09:05.808Z,18.77
2023-02-28T21:11:33.835Z,12.48
2023-02-28T21:14:01.924Z,14.95
2023-02-28T21:16:29.793Z,13.63
2023-02-28T21:19:00.290Z,15.55
2023-02-28T21:21:27.406Z,12.02
2023-02-28T21:23:54.811Z,13.68
2023-02-28T21:26:23.027Z,10.05
2023-02-28T21:28:50.934Z,12.23
2023-02-28T21:31:19.076Z,11.75
2023-02-28T21:33:46.577Z,9.13
2023-02-28T21:36:15.158Z,11.00
2023-02-28T21:38:42.937Z,16.13
2023-02-28T21:41:11.652Z,13.25
2023-02-28T21:43:39.366Z,16.02
2023-02-28T21:46:07.618Z,11.90
2023-02-28T21:48:35.009Z,11.82
2023-02-28T21:51:03.114Z,13.38
2023-02-28T21:53:31.003Z,12.23
2023-02-28T21:56:24.347Z,8.20
2023-02-28T21:58:51.826Z,8.35
2023-02-28T22:01:20.073Z,7.65
2023-02-28T22:03:47.961Z,9.77
2023-02-28T22:06:16.904Z,9.80
2023-02-28T22:08:45.130Z,8.65
2023-02-28T22:11:12.805Z,8.98
2023-02-28T22:13:40.162Z,9.88
2023-02-28T22:16:08.693Z,8.43
2023-02-28T22:18:36.241Z,7.80
2023-02-28T22:21:03.785Z,6.80
2023-02-28T22:23:30.896Z,13.85
2023-02-28T22:26:00.693Z,8.82
2023-02-28T22:28:30.113Z,8.95
2023-02-28T22:30:58.183Z,8.18
2023-02-28T22:33:25.894Z,9.63
2023-02-28T22:35:53.080Z,10.95
2023-02-28T22:38:20.239Z,10.18
2023-02-28T22:40:47.327Z,15.20
2023-02-28T22:43:14.564Z,9.93
2023-02-28T22:45:42.141Z,10.15
2023-02-28T22:48:11.042Z,12.93
2023-02-28T22:50:38.252Z,11.13
2023-02-28T22:53:05.307Z,12.20
2023-02-28T22:55:32.414Z,12.55
2023-02-28T22:57:59.480Z,14.88
2023-02-28T23:00:26.563Z,18.70
2023-02-28T23:02:53.652Z,24.92
2023-02-28T23:05:20.775Z,23.67
2023-02-28T23:07:47.927Z,20.52
2023-02-28T23:10:16.890Z,16.40
2023-02-28T23:12:51.742Z,16.35
2023-02-28T23:15:19.117Z,14.02
2023-02-28T23:17:46.507Z,14.65
2023-02-28T23:20:14.516Z,12.45
2023-02-28T23:22:46.377Z,17.80
2023-02-28T23:25:14.302Z,15.95
2023-02-28T23:27:41.987Z,15.55
2023-02-28T23:30:10.736Z,14.90
2023-02-28T23:32:38.516Z,14.80
2023-02-28T23:35:09.721Z,16.23
2023-02-28T23:37:37.745Z,13.40
2023-02-28T23:40:05.650Z,17.75
2023-02-28T23:42:32.762Z,16.95
2023-02-28T23:44:59.839Z,21.52
2023-02-28T23:47:27.126Z,14.85
2023-02-28T23:49:54.288Z,16.40
2023-02-28T23:52:22.017Z,17.15
2023-02-28T23:54:49.120Z,16.83
2023-02-28T23:57:16.291Z,14.93
2023-02-28T23:59:43.341Z,16.27
